Time;durP1;ratioP1;P1;durP2;ratioP2;P2;SDS_P1;SDS_P2;PMS_P1;PMS_P2;Temp;Humidity;BMP_temperature;BMP_pressure;BME280_temperature;BME280_humidity;BME280_pressure;Samples;Min_cycle;Max_cycle;Signal;HPM_P1;HPM_P2
2021/10/26 00:02:02;;;;;;;;;;;18.10;57.50;;;;;;4955742;28;1689224;-57
2021/10/26 00:04:27;;;;;;;;;;;18.20;57.50;;;;;;5019088;28;19967;-55
2021/10/26 00:06:52;;;;;;;;;;;18.10;57.50;;;;;;5021951;28;19917;-60
2021/10/26 00:09:18;;;;;;;;;;;18.10;57.50;;;;;;5010080;28;19967;-54
2021/10/26 00:11:43;;;;;;;;;;;18.10;57.50;;;;;;5008284;28;19921;-50
2021/10/26 00:14:09;;;;;;;;;;;18.10;57.50;;;;;;5013114;28;19925;-58
2021/10/26 00:16:34;;;;;;;;;;;18.10;57.50;;;;;;5028065;23;19929;-56
2021/10/26 00:19:00;;;;;;;;;;;18.10;57.50;;;;;;5001267;28;20006;-55
2021/10/26 00:21:25;;;;;;;;;;;18.10;57.60;;;;;;4997100;28;19914;-55
2021/10/26 00:23:51;;;;;;;;;;;18.10;57.60;;;;;;5019006;28;19914;-58
2021/10/26 00:26:16;;;;;;;;;;;18.10;57.50;;;;;;5019352;28;19956;-57
2021/10/26 00:28:41;;;;;;;;;;;18.10;57.50;;;;;;5021723;28;19913;-57
2021/10/26 00:31:07;;;;;;;;;;;18.10;57.50;;;;;;5022537;28;19928;-57
2021/10/26 00:33:32;;;;;;;;;;;18.10;57.50;;;;;;5021294;28;19945;-58
2021/10/26 00:35:58;;;;;;;;;;;18.10;57.50;;;;;;5021677;28;19913;-54
2021/10/26 00:38:23;;;;;;;;;;;18.10;57.50;;;;;;5021370;28;19920;-58
2021/10/26 00:40:49;;;;;;;;;;;18.10;57.50;;;;;;5023080;28;19983;-56
2021/10/26 00:43:14;;;;;;;;;;;18.10;57.50;;;;;;5022608;28;19924;-53
2021/10/26 00:45:39;;;;;;;;;;;18.10;57.50;;;;;;5020873;28;19920;-57
2021/10/26 00:48:05;;;;;;;;;;;18.10;57.50;;;;;;5035006;28;20438;-58
2021/10/26 00:50:30;;;;;;;;;;;18.10;57.60;;;;;;5022723;28;19913;-55
2021/10/26 00:52:56;;;;;;;;;;;18.10;57.50;;;;;;5019647;28;19971;-56
2021/10/26 00:55:21;;;;;;;;;;;18.10;57.50;;;;;;5022290;28;19917;-56
2021/10/26 00:57:47;;;;;;;;;;;18.10;57.50;;;;;;5020114;28;19952;-54
2021/10/26 01:00:13;;;;;;;;;;;18.10;57.50;;;;;;5020624;28;19966;-56
2021/10/26 01:02:40;;;;;;;;;;;18.10;57.50;;;;;;5020682;28;19913;-57
2021/10/26 01:05:06;;;;;;;;;;;18.10;57.50;;;;;;5035047;28;19913;-57
2021/10/26 01:07:32;;;;;;;;;;;18.10;57.60;;;;;;5019946;28;19936;-55
2021/10/26 01:09:57;;;;;;;;;;;18.10;57.50;;;;;;5033320;28;19944;-55
2021/10/26 01:12:22;;;;;;;;;;;18.10;57.50;;;;;;5021706;28;19917;-56
2021/10/26 01:14:48;;;;;;;;;;;18.10;57.60;;;;;;5019394;28;20489;-53
2021/10/26 01:17:13;;;;;;;;;;;18.10;57.60;;;;;;5034562;28;19929;-55
2021/10/26 01:19:45;;;;;;;;;;;18.10;57.60;;;;;;5020795;28;20283;-57
2021/10/26 01:22:10;;;;;;;;;;;18.10;57.60;;;;;;5020350;28;19984;-53
2021/10/26 01:24:36;;;;;;;;;;;18.10;57.60;;;;;;5020611;28;19913;-57
2021/10/26 01:27:01;;;;;;;;;;;18.10;57.60;;;;;;5020484;28;19928;-55
2021/10/26 01:29:27;;;;;;;;;;;18.10;57.60;;;;;;5020927;28;20512;-53
2021/10/26 01:31:52;;;;;;;;;;;18.10;57.60;;;;;;5020569;28;19921;-58
2021/10/26 01:34:18;;;;;;;;;;;18.10;58.30;;;;;;5020555;28;19917;-53
2021/10/26 01:36:43;;;;;;;;;;;18.10;57.70;;;;;;5018715;28;19920;-58
2021/10/26 01:39:08;;;;;;;;;;;18.10;57.70;;;;;;5021174;28;20290;-57
2021/10/26 01:41:34;;;;;;;;;;;18.00;57.60;;;;;;5020341;28;19966;-58
2021/10/26 01:43:59;;;;;;;;;;;18.00;57.70;;;;;;5019723;28;19917;-56
2021/10/26 01:46:25;;;;;;;;;;;18.00;57.70;;;;;;5020468;28;19913;-56
2021/10/26 01:48:50;;;;;;;;;;;18.00;57.80;;;;;;5021385;28;20364;-54
2021/10/26 01:51:16;;;;;;;;;;;18.00;57.70;;;;;;5021645;28;19920;-54
2021/10/26 01:53:41;;;;;;;;;;;18.00;57.80;;;;;;5020291;28;19917;-57
2021/10/26 01:56:07;;;;;;;;;;;18.00;57.80;;;;;;5019643;28;19920;-58
2021/10/26 01:58:32;;;;;;;;;;;18.00;57.80;;;;;;5020005;28;19914;-55
2021/10/26 02:00:58;;;;;;;;;;;18.00;57.80;;;;;;5017589;28;19913;-58
2021/10/26 02:03:23;;;;;;;;;;;18.00;57.80;;;;;;5021258;28;19921;-59
2021/10/26 02:05:48;;;;;;;;;;;18.00;57.80;;;;;;5020896;28;20405;-52
2021/10/26 02:08:14;;;;;;;;;;;18.00;57.80;;;;;;5019568;28;19974;-58
2021/10/26 02:10:40;;;;;;;;;;;18.00;57.80;;;;;;5018204;28;19925;-58
2021/10/26 02:13:05;;;;;;;;;;;18.00;57.80;;;;;;5012463;28;19924;-58
2021/10/26 02:15:31;;;;;;;;;;;18.00;57.80;;;;;;5018888;28;19964;-52
2021/10/26 02:17:57;;;;;;;;;;;18.00;57.90;;;;;;5030796;28;20302;-59
2021/10/26 02:20:22;;;;;;;;;;;18.00;57.80;;;;;;5021087;28;19914;-57
2021/10/26 02:22:47;;;;;;;;;;;18.00;57.80;;;;;;5019212;28;19967;-57
2021/10/26 02:25:13;;;;;;;;;;;18.00;57.80;;;;;;5020036;28;19913;-54
2021/10/26 02:27:39;;;;;;;;;;;18.00;57.90;;;;;;5033170;28;20504;-58
2021/10/26 02:30:05;;;;;;;;;;;18.00;57.90;;;;;;5020441;28;19917;-58
2021/10/26 02:32:30;;;;;;;;;;;18.00;57.90;;;;;;5018167;28;19913;-56
2021/10/26 02:34:56;;;;;;;;;;;18.00;57.90;;;;;;5020550;28;19921;-56
2021/10/26 02:37:21;;;;;;;;;;;18.00;58.00;;;;;;5022660;28;20388;-54
2021/10/26 02:39:47;;;;;;;;;;;17.90;57.90;;;;;;5022876;28;19921;-59
2021/10/26 02:42:12;;;;;;;;;;;17.90;57.90;;;;;;5023995;28;19925;-55
2021/10/26 02:44:37;;;;;;;;;;;18.00;57.90;;;;;;5024523;28;20413;-56
2021/10/26 02:47:03;;;;;;;;;;;17.90;57.90;;;;;;5024356;28;20262;-56
2021/10/26 02:49:28;;;;;;;;;;;17.90;57.90;;;;;;5024468;28;20004;-56
2021/10/26 02:51:54;;;;;;;;;;;17.90;57.90;;;;;;5023151;28;20451;-58
2021/10/26 02:54:20;;;;;;;;;;;18.00;58.00;;;;;;5023548;28;19921;-58
2021/10/26 02:56:45;;;;;;;;;;;17.90;57.90;;;;;;5016716;28;19929;-56
2021/10/26 02:59:10;;;;;;;;;;;17.90;57.90;;;;;;5012312;28;20397;-56
2021/10/26 03:01:36;;;;;;;;;;;17.90;57.90;;;;;;5022752;28;19914;-56
2021/10/26 03:04:01;;;;;;;;;;;17.90;57.90;;;;;;5024097;28;19918;-54
2021/10/26 03:06:27;;;;;;;;;;;17.90;57.90;;;;;;5022958;28;19920;-58
2021/10/26 03:08:52;;;;;;;;;;;17.90;58.00;;;;;;5022024;28;20472;-53
2021/10/26 03:11:18;;;;;;;;;;;17.90;57.90;;;;;;5022731;28;19917;-54
2021/10/26 03:13:43;;;;;;;;;;;17.90;57.90;;;;;;5024560;28;19929;-56
2021/10/26 03:16:09;;;;;;;;;;;17.90;57.90;;;;;;5022801;28;19928;-54
2021/10/26 03:18:34;;;;;;;;;;;17.90;57.90;;;;;;5022819;28;19917;-57
2021/10/26 03:21:00;;;;;;;;;;;17.90;57.90;;;;;;5023530;28;20434;-57
2021/10/26 03:23:25;;;;;;;;;;;17.90;58.00;;;;;;5023768;28;20717;-58
2021/10/26 03:25:51;;;;;;;;;;;17.90;57.90;;;;;;5009875;28;19917;-57
2021/10/26 03:28:16;;;;;;;;;;;17.90;57.90;;;;;;5023217;28;19913;-58
2021/10/26 03:30:42;;;;;;;;;;;17.90;57.90;;;;;;5004729;28;19924;-58
2021/10/26 03:33:08;;;;;;;;;;;17.90;57.90;;;;;;5023881;28;19917;-59
2021/10/26 03:35:33;;;;;;;;;;;17.90;58.00;;;;;;5023529;28;19917;-57
2021/10/26 03:38:00;;;;;;;;;;;17.90;58.00;;;;;;5022204;28;19921;-56
2021/10/26 03:40:25;;;;;;;;;;;17.90;58.00;;;;;;5023303;28;20398;-54
2021/10/26 03:42:50;;;;;;;;;;;17.90;58.00;;;;;;5023729;28;20232;-59
2021/10/26 03:45:16;;;;;;;;;;;17.90;58.00;;;;;;5023456;28;20286;-57
2021/10/26 03:47:42;;;;;;;;;;;17.90;58.00;;;;;;5022818;28;19974;-53
2021/10/26 03:50:08;;;;;;;;;;;17.90;58.00;;;;;;5024013;28;19921;-57
2021/10/26 03:52:34;;;;;;;;;;;17.90;58.00;;;;;;5020285;28;19913;-56
2021/10/26 03:54:59;;;;;;;;;;;17.90;57.90;;;;;;5021946;28;19917;-52
2021/10/26 03:57:25;;;;;;;;;;;17.90;57.90;;;;;;5028781;28;19913;-59
2021/10/26 03:59:50;;;;;;;;;;;18.00;57.80;;;;;;5017664;28;19920;-54
2021/10/26 04:02:23;;;;;;;;;;;17.90;57.90;;;;;;5043804;28;19929;-56
2021/10/26 04:04:49;;;;;;;;;;;18.00;57.90;;;;;;5023328;28;19917;-56
2021/10/26 04:07:14;;;;;;;;;;;18.00;57.80;;;;;;5022944;28;19921;-57
2021/10/26 04:14:45;;;;;;;;;;;18.00;57.80;;;;;;5023343;28;19918;-58
2021/10/26 04:17:11;;;;;;;;;;;18.00;57.80;;;;;;5022118;28;19921;-59
2021/10/26 04:19:36;;;;;;;;;;;18.00;57.80;;;;;;5020324;28;19913;-56
2021/10/26 04:22:02;;;;;;;;;;;18.00;57.70;;;;;;5022082;28;19913;-55
2021/10/26 04:24:27;;;;;;;;;;;18.00;57.60;;;;;;5022138;28;20337;-54
2021/10/26 04:26:53;;;;;;;;;;;18.10;57.60;;;;;;5018028;28;19924;-56
2021/10/26 04:29:18;;;;;;;;;;;18.10;57.50;;;;;;5000913;28;19913;-58
2021/10/26 04:31:44;;;;;;;;;;;18.10;57.50;;;;;;5021689;28;20572;-57
2021/10/26 04:34:09;;;;;;;;;;;18.10;57.50;;;;;;5022212;28;19940;-61
2021/10/26 04:36:35;;;;;;;;;;;18.10;57.60;;;;;;5034002;28;19970;-54
2021/10/26 04:39:00;;;;;;;;;;;18.10;57.70;;;;;;5013995;28;19912;-55
2021/10/26 04:41:26;;;;;;;;;;;18.10;57.60;;;;;;5034584;28;19918;-54
2021/10/26 04:43:52;;;;;;;;;;;18.10;57.60;;;;;;5009192;28;20414;-56
2021/10/26 04:46:17;;;;;;;;;;;18.10;57.60;;;;;;5027615;28;19913;-56
2021/10/26 04:48:43;;;;;;;;;;;18.20;57.60;;;;;;5022266;28;19924;-54
2021/10/26 04:51:08;;;;;;;;;;;18.20;57.60;;;;;;5017724;28;19924;-57
2021/10/26 04:53:34;;;;;;;;;;;18.20;57.60;;;;;;5019296;28;19920;-57
2021/10/26 04:56:00;;;;;;;;;;;18.20;57.60;;;;;;5014370;28;19913;-54
2021/10/26 04:58:25;;;;;;;;;;;18.20;57.60;;;;;;5023105;28;20270;-54
2021/10/26 05:00:51;;;;;;;;;;;18.10;57.60;;;;;;5019463;28;19913;-58
2021/10/26 05:03:16;;;;;;;;;;;18.20;57.60;;;;;;5022660;28;19913;-58
2021/10/26 05:05:42;;;;;;;;;;;18.20;57.70;;;;;;5021906;28;20329;-56
2021/10/26 05:08:07;;;;;;;;;;;18.10;57.60;;;;;;5020996;28;19913;-55
2021/10/26 05:10:33;;;;;;;;;;;18.10;57.60;;;;;;5020835;28;19913;-56
2021/10/26 05:12:58;;;;;;;;;;;18.10;57.60;;;;;;5022043;28;19917;-56
2021/10/26 05:15:23;;;;;;;;;;;18.20;58.30;;;;;;5020303;28;20302;-56
2021/10/26 05:17:50;;;;;;;;;;;18.20;57.60;;;;;;5022761;28;20055;-56
2021/10/26 05:20:17;;;;;;;;;;;18.20;57.70;;;;;;5021830;28;20695;-52
2021/10/26 05:22:43;;;;;;;;;;;18.20;57.60;;;;;;5023086;28;20306;-55
2021/10/26 05:25:08;;;;;;;;;;;18.20;57.60;;;;;;5017604;28;19913;-58
2021/10/26 05:27:39;;;;;;;;;;;18.20;57.60;;;;;;5011214;28;19920;-54
2021/10/26 05:30:07;;;;;;;;;;;18.20;57.60;;;;;;5016259;28;19987;-54
2021/10/26 05:32:33;;;;;;;;;;;18.20;57.60;;;;;;5037412;28;19936;-53
2021/10/26 05:34:59;;;;;;;;;;;18.20;57.60;;;;;;5026635;28;19917;-54
2021/10/26 05:37:24;;;;;;;;;;;18.20;57.70;;;;;;5043941;28;20608;-52
2021/10/26 05:39:50;;;;;;;;;;;18.30;59.10;;;;;;5009442;28;19912;-55
2021/10/26 05:42:15;;;;;;;;;;;18.30;58.70;;;;;;5038665;28;19928;-56
2021/10/26 05:44:40;;;;;;;;;;;18.30;58.30;;;;;;5021714;28;20023;-57
2021/10/26 05:47:06;;;;;;;;;;;18.30;58.00;;;;;;5021496;28;19932;-58
2021/10/26 05:49:31;;;;;;;;;;;18.30;58.00;;;;;;5008911;28;19925;-57
2021/10/26 05:51:57;;;;;;;;;;;18.30;58.00;;;;;;5044764;28;20618;-57
2021/10/26 05:54:22;;;;;;;;;;;18.30;58.00;;;;;;5022404;28;19928;-58
2021/10/26 05:56:48;;;;;;;;;;;18.30;58.10;;;;;;5035058;28;20019;-58
2021/10/26 05:59:13;;;;;;;;;;;18.20;58.20;;;;;;5022324;28;19928;-57
2021/10/26 06:01:40;;;;;;;;;;;18.20;58.40;;;;;;5021554;28;19966;-57
2021/10/26 06:04:05;;;;;;;;;;;18.20;58.70;;;;;;5022034;28;20343;-57
2021/10/26 06:06:31;;;;;;;;;;;18.20;58.80;;;;;;5017886;28;19959;-57
2021/10/26 06:08:56;;;;;;;;;;;18.20;59.00;;;;;;5021774;28;20000;-54
2021/10/26 06:11:24;;;;;;;;;;;18.20;59.10;;;;;;5018213;28;19921;-59
2021/10/26 06:14:00;;;;;;;;;;;18.20;59.20;;;;;;5025522;28;19921;-55
2021/10/26 06:16:26;;;;;;;;;;;18.10;59.20;;;;;;5037236;28;19921;-57
2021/10/26 06:18:51;;;;;;;;;;;18.10;59.30;;;;;;5026208;28;19964;-56
2021/10/26 06:21:17;;;;;;;;;;;18.10;59.30;;;;;;5037240;28;19917;-56
2021/10/26 06:23:42;;;;;;;;;;;18.10;59.30;;;;;;5028660;28;19940;-57
2021/10/26 06:26:08;;;;;;;;;;;18.20;59.30;;;;;;5022563;28;19916;-57
2021/10/26 06:28:33;;;;;;;;;;;18.20;59.30;;;;;;5026232;28;19913;-58
2021/10/26 06:30:59;;;;;;;;;;;18.20;59.50;;;;;;5019801;28;19912;-54
2021/10/26 06:33:24;;;;;;;;;;;18.20;59.70;;;;;;5033532;28;19920;-59
2021/10/26 06:35:50;;;;;;;;;;;18.20;59.80;;;;;;5022439;28;19921;-55
2021/10/26 06:38:15;;;;;;;;;;;18.20;60.00;;;;;;5025023;28;19924;-55
2021/10/26 06:40:41;;;;;;;;;;;18.20;60.20;;;;;;5023332;28;19913;-59
2021/10/26 06:43:06;;;;;;;;;;;18.20;60.30;;;;;;5024550;28;19913;-56
2021/10/26 06:45:32;;;;;;;;;;;18.20;60.60;;;;;;5021173;28;20451;-54
2021/10/26 06:47:57;;;;;;;;;;;18.20;60.70;;;;;;5039569;28;19971;-54
2021/10/26 06:50:23;;;;;;;;;;;18.10;60.80;;;;;;5018009;28;19913;-53
2021/10/26 06:52:49;;;;;;;;;;;18.10;60.80;;;;;;5038775;28;19928;-56
2021/10/26 06:55:20;;;;;;;;;;;18.20;60.90;;;;;;5025173;28;19921;-54
2021/10/26 06:57:48;;;;;;;;;;;18.10;60.70;;;;;;5024850;28;20297;-54
2021/10/26 07:00:14;;;;;;;;;;;18.10;60.50;;;;;;5038832;28;20410;-55
2021/10/26 07:02:46;;;;;;;;;;;18.20;60.40;;;;;;5007489;28;19913;-55
2021/10/26 07:05:11;;;;;;;;;;;18.10;60.20;;;;;;5024632;28;19913;-54
2021/10/26 07:07:37;;;;;;;;;;;18.20;60.10;;;;;;5023438;28;19913;-52
2021/10/26 07:10:04;;;;;;;;;;;18.10;59.90;;;;;;5008360;28;20378;-55
2021/10/26 07:12:30;;;;;;;;;;;18.10;59.80;;;;;;5047503;28;19914;-55
2021/10/26 07:14:55;;;;;;;;;;;18.10;59.70;;;;;;5019430;28;20408;-57
2021/10/26 07:17:21;;;;;;;;;;;18.10;59.70;;;;;;5048213;28;20480;-58
2021/10/26 07:19:46;;;;;;;;;;;18.10;59.70;;;;;;5013670;28;20016;-58
2021/10/26 07:22:12;;;;;;;;;;;18.10;59.70;;;;;;5044040;28;19913;-59
2021/10/26 07:24:37;;;;;;;;;;;18.10;59.60;;;;;;5012403;28;19959;-55
2021/10/26 07:27:03;;;;;;;;;;;18.10;59.60;;;;;;5029822;28;19921;-57
2021/10/26 07:29:28;;;;;;;;;;;18.10;59.50;;;;;;5023781;28;19921;-57
2021/10/26 07:31:55;;;;;;;;;;;18.10;59.60;;;;;;5005576;28;20454;-57
2021/10/26 07:34:22;;;;;;;;;;;18.10;59.60;;;;;;5024122;28;19956;-58
2021/10/26 07:36:48;;;;;;;;;;;18.10;59.70;;;;;;5033546;28;19912;-59
2021/10/26 07:39:32;;;;;;;;;;;18.10;59.70;;;;;;5024491;28;19920;-53
2021/10/26 07:41:59;;;;;;;;;;;18.10;59.70;;;;;;5013204;28;19913;-55
2021/10/26 07:44:25;;;;;;;;;;;18.10;59.70;;;;;;5020798;28;20301;-53
2021/10/26 07:46:50;;;;;;;;;;;18.10;59.70;;;;;;5033336;28;19912;-58
2021/10/26 07:49:16;;;;;;;;;;;18.10;59.70;;;;;;5023862;28;20588;-58
2021/10/26 07:51:41;;;;;;;;;;;18.10;59.70;;;;;;5042080;28;20018;-56
2021/10/26 07:54:07;;;;;;;;;;;18.10;59.70;;;;;;5022645;28;19918;-59
2021/10/26 07:56:32;;;;;;;;;;;18.10;59.60;;;;;;5038323;28;20293;-57
2021/10/26 07:59:00;;;;;;;;;;;18.10;59.60;;;;;;5024193;28;19936;-59
2021/10/26 08:01:25;;;;;;;;;;;18.10;59.70;;;;;;5025648;28;19955;-54
2021/10/26 08:03:54;;;;;;;;;;;18.10;60.30;;;;;;5024255;28;19914;-56
2021/10/26 08:06:20;;;;;;;;;;;18.20;59.60;;;;;;5034915;28;20286;-58
2021/10/26 08:08:45;;;;;;;;;;;18.20;59.60;;;;;;5025488;28;19917;-56
2021/10/26 08:11:11;;;;;;;;;;;18.20;59.50;;;;;;5035179;28;19991;-58
2021/10/26 08:13:37;;;;;;;;;;;18.20;59.50;;;;;;5025027;28;19947;-57
2021/10/26 08:16:02;;;;;;;;;;;18.20;59.50;;;;;;5025448;28;19921;-53
2021/10/26 08:18:29;;;;;;;;;;;18.20;59.60;;;;;;5030185;28;19921;-59
2021/10/26 08:20:55;;;;;;;;;;;18.20;59.60;;;;;;5016174;28;20021;-57
2021/10/26 08:23:21;;;;;;;;;;;18.20;59.50;;;;;;5027802;28;19960;-59
2021/10/26 08:25:50;;;;;;;;;;;18.20;59.50;;;;;;5026195;28;19917;-56
2021/10/26 08:28:17;;;;;;;;;;;18.20;59.50;;;;;;5025647;28;19913;-55
2021/10/26 08:30:56;;;;;;;;;;;18.20;59.50;;;;;;5016548;28;20621;-58
2021/10/26 08:35:56;;;;;;;;;;;18.20;59.50;;;;;;5022956;28;19921;-54
2021/10/26 08:38:21;;;;;;;;;;;18.30;59.40;;;;;;5030774;28;19924;-56
2021/10/26 08:40:47;;;;;;;;;;;18.20;59.30;;;;;;5011193;28;19913;-53
2021/10/26 08:43:31;;;;;;;;;;;18.30;59.40;;;;;;5028138;28;20366;-59
2021/10/26 08:45:59;;;;;;;;;;;18.30;59.40;;;;;;5028039;28;20424;-58
2021/10/26 08:48:25;;;;;;;;;;;18.30;59.40;;;;;;5025405;28;19920;-59
2021/10/26 08:50:57;;;;;;;;;;;18.30;59.30;;;;;;5023072;28;19912;-55
2021/10/26 08:53:28;;;;;;;;;;;18.30;59.30;;;;;;5024139;28;19917;-57
2021/10/26 08:55:58;;;;;;;;;;;18.30;59.30;;;;;;5025248;28;19920;-59
2021/10/26 08:58:24;;;;;;;;;;;18.20;59.40;;;;;;5013489;28;20172;-58
2021/10/26 09:00:50;;;;;;;;;;;18.20;59.50;;;;;;5030541;28;20232;-58
2021/10/26 09:03:17;;;;;;;;;;;18.20;59.50;;;;;;5029857;28;19924;-56
2021/10/26 09:05:44;;;;;;;;;;;18.20;59.60;;;;;;5019991;22;19945;-58
2021/10/26 09:08:10;;;;;;;;;;;18.20;59.70;;;;;;4987863;28;19913;-54
2021/10/26 09:10:36;;;;;;;;;;;18.10;59.80;;;;;;4992936;28;19933;-55
2021/10/26 09:18:37;;;;;;;;;;;18.10;60.00;;;;;;4986414;28;19929;-59
2021/10/26 09:21:02;;;;;;;;;;;18.10;60.00;;;;;;4987771;28;19913;-56
2021/10/26 09:23:28;;;;;;;;;;;18.10;60.10;;;;;;4985289;28;20044;-56
2021/10/26 09:25:54;;;;;;;;;;;18.10;60.10;;;;;;4976418;28;19959;-58
2021/10/26 09:28:19;;;;;;;;;;;18.10;60.10;;;;;;4994773;28;19940;-56
2021/10/26 09:31:17;;;;;;;;;;;18.00;60.10;;;;;;5010013;28;19919;-59
2021/10/26 09:33:42;;;;;;;;;;;18.00;60.10;;;;;;4999690;28;19917;-59
2021/10/26 09:36:40;;;;;;;;;;;18.10;60.10;;;;;;5016295;28;19975;-56
2021/10/26 09:39:13;;;;;;;;;;;18.10;60.10;;;;;;4979566;28;19914;-58
2021/10/26 09:41:51;;;;;;;;;;;18.10;60.10;;;;;;5019867;28;19923;-56
2021/10/26 09:44:17;;;;;;;;;;;18.10;60.20;;;;;;5008353;28;19921;-58
2021/10/26 09:46:50;;;;;;;;;;;18.10;60.10;;;;;;5022895;28;20007;-57
2021/10/26 09:49:22;;;;;;;;;;;18.10;60.00;;;;;;5020255;28;19924;-57
2021/10/26 09:51:48;;;;;;;;;;;18.10;59.90;;;;;;5021131;28;19913;-58
2021/10/26 09:54:17;;;;;;;;;;;18.10;59.90;;;;;;5008638;28;20595;-56
2021/10/26 09:57:02;;;;;;;;;;;18.20;59.90;;;;;;5005196;28;19992;-55
2021/10/26 09:59:28;;;;;;;;;;;18.10;59.90;;;;;;4991470;28;20120;-59
2021/10/26 10:01:53;;;;;;;;;;;18.20;59.90;;;;;;4986924;28;20583;-58
2021/10/26 10:04:29;;;;;;;;;;;18.10;59.90;;;;;;4987125;28;19914;-55
2021/10/26 10:06:54;;;;;;;;;;;18.10;59.90;;;;;;4981331;28;20461;-58
2021/10/26 10:09:20;;;;;;;;;;;18.10;59.90;;;;;;5012916;28;19917;-59
2021/10/26 10:11:59;;;;;;;;;;;18.20;59.90;;;;;;5019669;28;19920;-52
2021/10/26 10:14:24;;;;;;;;;;;18.20;59.90;;;;;;5019315;28;19951;-58
2021/10/26 10:16:53;;;;;;;;;;;18.20;59.80;;;;;;5002941;28;20446;-51
2021/10/26 10:19:19;;;;;;;;;;;18.20;59.90;;;;;;5005919;28;20329;-59
2021/10/26 10:21:45;;;;;;;;;;;18.20;59.80;;;;;;5002793;28;19913;-58
2021/10/26 10:24:11;;;;;;;;;;;18.20;59.80;;;;;;5019255;28;19925;-59
2021/10/26 10:26:37;;;;;;;;;;;18.20;59.80;;;;;;4991309;28;20425;-58
2021/10/26 10:29:02;;;;;;;;;;;18.20;59.90;;;;;;5002433;28;19917;-59
2021/10/26 10:31:28;;;;;;;;;;;18.20;59.90;;;;;;4994146;28;19940;-57
2021/10/26 10:33:54;;;;;;;;;;;18.20;59.90;;;;;;5009777;28;19917;-57
2021/10/26 10:36:20;;;;;;;;;;;18.20;59.90;;;;;;5001901;28;19913;-59
2021/10/26 10:38:46;;;;;;;;;;;18.20;59.90;;;;;;5010966;28;19917;-59
2021/10/26 10:41:25;;;;;;;;;;;18.20;59.90;;;;;;5005634;28;19920;-59
2021/10/26 10:43:51;;;;;;;;;;;18.20;60.10;;;;;;5009433;28;19968;-58
2021/10/26 10:46:36;;;;;;;;;;;18.20;60.00;;;;;;5004912;28;19921;-56
2021/10/26 10:49:27;;;;;;;;;;;18.20;59.90;;;;;;5005030;28;20186;-60
2021/10/26 10:52:08;;;;;;;;;;;18.20;59.80;;;;;;4979205;28;20402;-53
2021/10/26 10:54:37;;;;;;;;;;;18.20;59.90;;;;;;4999847;28;19917;-56
2021/10/26 10:57:16;;;;;;;;;;;18.20;59.90;;;;;;5017803;28;20316;-59
2021/10/26 10:59:42;;;;;;;;;;;18.20;59.90;;;;;;5002657;28;19913;-53
2021/10/26 11:02:18;;;;;;;;;;;18.20;59.90;;;;;;5018717;28;19914;-58
2021/10/26 11:04:43;;;;;;;;;;;18.20;59.90;;;;;;5001400;28;19920;-58
2021/10/26 11:07:09;;;;;;;;;;;18.20;59.90;;;;;;5017872;28;19918;-58
2021/10/26 11:09:35;;;;;;;;;;;18.20;59.90;;;;;;4995049;28;19964;-56
2021/10/26 11:12:09;;;;;;;;;;;18.20;60.50;;;;;;5022542;28;19917;-57
2021/10/26 11:14:44;;;;;;;;;;;18.20;59.80;;;;;;5005878;28;20000;-58
2021/10/26 11:17:28;;;;;;;;;;;18.20;59.90;;;;;;5018143;28;19952;-59
2021/10/26 11:19:57;;;;;;;;;;;18.20;59.90;;;;;;5006144;28;20295;-59
2021/10/26 11:22:40;;;;;;;;;;;18.30;59.90;;;;;;5008086;28;20008;-58
2021/10/26 11:25:20;;;;;;;;;;;18.20;59.90;;;;;;5008392;28;20168;-58
2021/10/26 11:27:45;;;;;;;;;;;18.30;59.90;;;;;;5017798;28;19914;-58
2021/10/26 11:30:37;;;;;;;;;;;18.30;59.90;;;;;;5008638;28;20072;-60
2021/10/26 11:33:15;;;;;;;;;;;18.20;59.90;;;;;;5013671;28;19914;-57
2021/10/26 11:35:40;;;;;;;;;;;18.20;59.80;;;;;;4996943;28;19925;-58
2021/10/26 11:38:07;;;;;;;;;;;18.30;59.80;;;;;;5015448;28;20338;-57
2021/10/26 11:40:32;;;;;;;;;;;18.30;59.80;;;;;;5012338;28;19972;-57
2021/10/26 11:42:58;;;;;;;;;;;18.30;59.90;;;;;;5022056;28;20416;-58
2021/10/26 11:45:24;;;;;;;;;;;18.30;59.80;;;;;;5002413;28;20408;-54
2021/10/26 11:47:49;;;;;;;;;;;18.30;59.80;;;;;;5022932;28;19913;-59
2021/10/26 11:50:19;;;;;;;;;;;18.30;59.80;;;;;;4999582;28;19964;-59
2021/10/26 11:52:44;;;;;;;;;;;18.30;59.80;;;;;;5021629;28;19913;-59
2021/10/26 11:55:10;;;;;;;;;;;18.30;59.80;;;;;;5010619;28;19936;-57
2021/10/26 11:57:35;;;;;;;;;;;18.30;59.70;;;;;;5019540;28;19920;-59
2021/10/26 12:00:04;;;;;;;;;;;18.30;59.70;;;;;;5000683;28;19924;-55
2021/10/26 12:02:32;;;;;;;;;;;18.30;59.70;;;;;;5022746;28;19984;-59
2021/10/26 12:04:58;;;;;;;;;;;18.40;59.70;;;;;;4997952;28;20090;-56
2021/10/26 12:07:24;;;;;;;;;;;18.40;59.70;;;;;;5017213;28;19921;-57
2021/10/26 12:09:50;;;;;;;;;;;18.30;59.70;;;;;;4995660;28;20020;-54
2021/10/26 12:12:20;;;;;;;;;;;18.40;60.40;;;;;;5019092;28;20498;-57
2021/10/26 12:14:46;;;;;;;;;;;18.40;59.80;;;;;;5001871;28;19917;-58
2021/10/26 12:17:12;;;;;;;;;;;18.30;59.90;;;;;;5016234;28;19913;-55
2021/10/26 12:19:42;;;;;;;;;;;18.40;59.80;;;;;;4991260;28;19923;-57
2021/10/26 12:22:11;;;;;;;;;;;18.40;59.90;;;;;;5019054;28;19914;-53
2021/10/26 12:24:36;;;;;;;;;;;18.40;59.80;;;;;;5008189;28;20382;-59
2021/10/26 12:27:05;;;;;;;;;;;18.40;59.80;;;;;;5019786;28;19917;-60
2021/10/26 12:29:31;;;;;;;;;;;18.40;59.90;;;;;;4995728;28;19918;-56
2021/10/26 12:31:57;;;;;;;;;;;18.40;59.80;;;;;;5022781;28;19920;-55
2021/10/26 12:34:23;;;;;;;;;;;18.40;59.70;;;;;;5017528;28;20037;-56
2021/10/26 12:36:48;;;;;;;;;;;18.40;59.70;;;;;;5005555;28;20104;-56
2021/10/26 12:39:22;;;;;;;;;;;18.40;59.60;;;;;;5018951;28;20580;-56
2021/10/26 12:41:47;;;;;;;;;;;18.40;59.60;;;;;;5006324;28;19924;-58
2021/10/26 12:44:17;;;;;;;;;;;18.50;59.70;;;;;;5014025;28;20394;-58
2021/10/26 12:46:43;;;;;;;;;;;18.40;59.60;;;;;;4993578;28;20184;-59
2021/10/26 12:49:09;;;;;;;;;;;18.40;59.60;;;;;;5014268;28;19913;-56
2021/10/26 12:51:34;;;;;;;;;;;18.40;59.60;;;;;;4993184;28;20015;-58
2021/10/26 12:54:11;;;;;;;;;;;18.40;59.70;;;;;;5007989;28;19923;-56
2021/10/26 12:56:42;;;;;;;;;;;18.40;59.70;;;;;;5008579;28;19913;-54
2021/10/26 12:59:08;;;;;;;;;;;18.40;59.70;;;;;;5010722;28;19913;-57
2021/10/26 13:01:36;;;;;;;;;;;18.40;59.70;;;;;;5008632;28;20439;-53
2021/10/26 13:04:21;;;;;;;;;;;18.40;59.60;;;;;;5008059;28;19913;-57
2021/10/26 13:06:51;;;;;;;;;;;18.40;59.60;;;;;;4993963;28;19921;-58
2021/10/26 13:09:23;;;;;;;;;;;18.40;59.60;;;;;;5008220;28;19913;-54
2021/10/26 13:11:49;;;;;;;;;;;18.40;59.60;;;;;;5005913;28;19921;-58
2021/10/26 13:14:15;;;;;;;;;;;18.40;59.50;;;;;;5020212;28;19927;-57
2021/10/26 13:16:44;;;;;;;;;;;18.40;59.70;;;;;;5006909;28;20349;-56
2021/10/26 13:19:13;;;;;;;;;;;18.40;59.60;;;;;;5018667;28;19924;-58
2021/10/26 13:21:38;;;;;;;;;;;18.40;59.70;;;;;;5004819;28;19993;-55
2021/10/26 13:24:05;;;;;;;;;;;18.50;59.60;;;;;;5015965;28;20000;-59
2021/10/26 13:26:33;;;;;;;;;;;18.40;59.60;;;;;;5007190;28;19917;-55
2021/10/26 13:28:59;;;;;;;;;;;18.50;59.60;;;;;;5012672;28;19921;-54
2021/10/26 13:31:25;;;;;;;;;;;18.50;59.60;;;;;;5008035;28;19913;-55
2021/10/26 13:33:50;;;;;;;;;;;18.50;59.60;;;;;;5003330;28;20345;-57
2021/10/26 13:36:16;;;;;;;;;;;18.50;59.60;;;;;;5002890;28;19937;-57
2021/10/26 13:38:41;;;;;;;;;;;18.50;59.70;;;;;;5014361;28;19968;-58
2021/10/26 13:41:07;;;;;;;;;;;18.50;59.70;;;;;;5003093;28;20816;-57
2021/10/26 13:43:36;;;;;;;;;;;18.50;59.70;;;;;;5017385;28;20405;-59
2021/10/26 13:46:02;;;;;;;;;;;18.50;59.80;;;;;;5007740;28;19974;-57
2021/10/26 13:48:28;;;;;;;;;;;18.40;59.70;;;;;;5019183;28;19971;-56
2021/10/26 13:50:54;;;;;;;;;;;18.50;59.70;;;;;;5009053;28;19921;-54
2021/10/26 13:53:20;;;;;;;;;;;18.50;59.70;;;;;;5016601;28;19913;-55
2021/10/26 13:55:46;;;;;;;;;;;18.50;59.70;;;;;;5006829;28;19917;-58
2021/10/26 13:58:11;;;;;;;;;;;18.50;59.70;;;;;;5016754;28;20493;-58
2021/10/26 14:00:39;;;;;;;;;;;18.40;59.60;;;;;;5000196;28;19979;-57
2021/10/26 14:03:05;;;;;;;;;;;18.50;59.60;;;;;;5021576;28;19913;-59
2021/10/26 14:05:31;;;;;;;;;;;18.50;59.60;;;;;;5004187;28;19921;-53
2021/10/26 14:07:58;;;;;;;;;;;18.50;59.70;;;;;;5021830;28;20486;-59
2021/10/26 14:10:23;;;;;;;;;;;18.50;59.70;;;;;;5026470;28;19931;-56
2021/10/26 14:12:48;;;;;;;;;;;18.50;59.60;;;;;;5017388;28;20000;-56
2021/10/26 14:15:14;;;;;;;;;;;18.50;59.60;;;;;;5000803;28;19917;-53
2021/10/26 14:17:39;;;;;;;;;;;18.50;59.70;;;;;;5012028;28;20394;-58
2021/10/26 14:20:05;;;;;;;;;;;18.50;59.60;;;;;;5005984;28;19920;-55
2021/10/26 14:22:31;;;;;;;;;;;18.50;60.20;;;;;;5013857;28;19924;-56
2021/10/26 14:24:56;;;;;;;;;;;18.50;59.60;;;;;;4993735;28;20295;-57
2021/10/26 14:27:22;;;;;;;;;;;18.50;59.50;;;;;;5013565;28;19980;-57
2021/10/26 14:29:47;;;;;;;;;;;18.60;59.50;;;;;;5000258;28;19921;-56